Time;durP1;ratioP1;P1;durP2;ratioP2;P2;SDS_P1;SDS_P2;PMS_P1;PMS_P2;Temp;Humidity;BMP_temperature;BMP_pressure;BME280_temperature;BME280_humidity;BME280_pressure;Samples;Min_cycle;Max_cycle;Signal;HPM_P1;HPM_P2
2022/11/11 00:01:13;;;;;;;78.88;22.52;;;8.90;99.90;;;;;;5078162;28;20190;-86
2022/11/11 00:03:39;;;;;;;76.47;21.55;;;8.90;99.90;;;;;;5078807;28;20159;-86
2022/11/11 00:06:11;;;;;;;79.70;22.02;;;8.80;99.90;;;;;;5078401;28;20168;-86
2022/11/11 00:08:36;;;;;;;81.35;20.00;;;8.80;99.90;;;;;;5077055;28;20160;-86
2022/11/11 00:11:10;;;;;;;76.97;17.20;;;8.80;99.90;;;;;;5078262;28;20168;-86
2022/11/11 00:13:37;;;;;;;76.25;15.75;;;8.70;99.90;;;;;;5077625;28;20429;-86
2022/11/11 00:16:14;;;;;;;76.80;16.25;;;8.70;99.90;;;;;;5077901;28;20639;-86
2022/11/11 00:27:06;;;;;;;74.72;15.15;;;8.60;99.90;;;;;;5078810;28;20155;-86
2022/11/11 00:29:32;;;;;;;76.97;18.23;;;8.50;99.90;;;;;;5077196;28;20184;-86
2022/11/11 00:35:51;;;;;;;78.40;18.00;;;8.50;99.90;;;;;;5078746;28;20163;-86
2022/11/11 00:37:27;;;;;;;76.22;17.05;;;8.50;99.90;;;;;;5078026;28;20241;-86
2022/11/11 00:39:53;;;;;;;73.07;15.80;;;8.50;99.90;;;;;;5077672;28;20180;-86
2022/11/11 00:42:18;;;;;;;84.60;19.97;;;8.50;99.90;;;;;;5078188;28;20168;-86
2022/11/11 00:44:44;;;;;;;76.73;17.00;;;8.50;99.90;;;;;;5077733;28;20172;-86
2022/11/11 00:52:43;;;;;;;76.10;17.88;;;8.50;99.90;;;;;;5075818;28;20670;-86
2022/11/11 00:55:09;;;;;;;78.78;16.08;;;8.40;99.90;;;;;;5077130;28;20164;-86
2022/11/11 00:57:34;;;;;;;73.50;17.07;;;8.40;99.90;;;;;;5076769;28;20160;-86
2022/11/11 01:00:00;;;;;;;75.63;16.63;;;8.40;99.90;;;;;;5076630;28;20180;-86
2022/11/11 01:02:29;;;;;;;73.50;16.70;;;8.40;99.90;;;;;;5077136;28;20167;-86
2022/11/11 01:04:55;;;;;;;76.25;18.27;;;8.40;99.90;;;;;;5075517;28;20168;-86
2022/11/11 01:07:24;;;;;;;75.03;17.90;;;8.40;99.90;;;;;;5075213;28;20174;-86
2022/11/11 01:09:50;;;;;;;73.97;16.48;;;8.40;99.90;;;;;;5076411;28;20188;-86
2022/11/11 01:12:15;;;;;;;78.40;22.00;;;8.40;99.90;;;;;;5076247;28;20199;-86
2022/11/11 01:14:41;;;;;;;74.30;16.23;;;8.40;99.90;;;;;;5077161;28;20168;-86
2022/11/11 01:17:08;;;;;;;77.63;17.70;;;8.40;99.90;;;;;;5076607;28;20532;-86
2022/11/11 01:19:34;;;;;;;74.60;17.67;;;8.50;99.90;;;;;;5076062;28;20234;-86
2022/11/11 01:22:00;;;;;;;78.53;17.33;;;8.50;99.90;;;;;;5075959;28;20172;-86
2022/11/11 01:24:33;;;;;;;74.57;17.87;;;8.40;99.90;;;;;;5076050;28;20405;-86
2022/11/11 01:26:58;;;;;;;76.22;16.65;;;8.40;99.90;;;;;;5076664;28;20390;-86
2022/11/11 01:29:24;;;;;;;74.00;15.90;;;8.30;99.90;;;;;;5076314;28;20184;-86
2022/11/11 01:31:50;;;;;;;77.37;16.40;;;8.30;99.90;;;;;;5077303;28;20188;-86
2022/11/11 01:34:15;;;;;;;75.63;18.93;;;8.30;99.90;;;;;;5076136;28;20213;-86
2022/11/11 01:36:41;;;;;;;73.80;18.80;;;8.30;99.90;;;;;;5076582;28;20184;-86
2022/11/11 01:39:07;;;;;;;76.97;19.13;;;8.30;99.90;;;;;;5075162;28;20195;-86
2022/11/11 01:41:37;;;;;;;78.22;20.33;;;8.30;99.90;;;;;;5076205;28;20160;-86
2022/11/11 01:44:12;;;;;;;77.50;19.85;;;8.30;99.90;;;;;;5074726;28;20160;-86
2022/11/11 01:46:40;;;;;;;75.13;17.98;;;8.30;99.90;;;;;;5074472;28;20258;-86
2022/11/11 01:49:31;;;;;;;79.60;18.27;;;8.30;99.90;;;;;;5075468;28;20206;-86
2022/11/11 01:52:20;;;;;;;73.72;17.50;;;8.20;99.90;;;;;;5075690;28;20711;-86
2022/11/11 01:54:49;;;;;;;79.00;21.45;;;8.20;99.90;;;;;;5074838;28;20196;-86
2022/11/11 01:57:33;;;;;;;76.20;18.40;;;8.20;99.90;;;;;;5074721;28;20528;-86
2022/11/11 02:00:22;;;;;;;76.50;18.27;;;8.20;99.90;;;;;;5075312;28;20575;-86
2022/11/11 02:02:50;;;;;;;74.00;17.40;;;8.20;99.90;;;;;;5066467;28;20202;-86
2022/11/11 02:08:32;;;;;;;76.78;19.10;;;8.20;99.90;;;;;;5075661;28;20183;-86
2022/11/11 02:11:12;;;;;;;78.97;19.48;;;8.20;99.90;;;;;;5074383;28;20191;-86
2022/11/11 02:16:25;;;;;;;73.38;15.55;;;8.20;99.90;;;;;;5075675;28;20202;-86
2022/11/11 02:18:51;;;;;;;81.30;21.53;;;8.20;99.90;;;;;;5075231;28;20164;-86
2022/11/11 02:21:32;;;;;;;76.57;19.90;;;8.20;99.90;;;;;;5074771;28;20928;-86
2022/11/11 02:24:26;;;;;;;81.15;19.50;;;8.10;99.90;;;;;;5075429;28;20179;-86
2022/11/11 02:26:54;;;;;;;76.00;19.45;;;8.10;99.90;;;;;;5075019;28;20665;-86
2022/11/11 02:29:21;;;;;;;81.78;18.77;;;8.20;99.90;;;;;;5074471;28;20210;-86
2022/11/11 02:31:47;;;;;;;76.25;18.75;;;8.20;99.90;;;;;;5074209;28;20174;-86
2022/11/11 02:34:12;;;;;;;75.97;19.30;;;8.20;99.90;;;;;;5074343;28;20164;-86
2022/11/11 02:36:39;;;;;;;78.10;20.07;;;8.20;99.90;;;;;;5074231;28;20186;-86
2022/11/11 02:39:05;;;;;;;79.30;19.23;;;8.20;99.90;;;;;;5074031;28;20465;-86
2022/11/11 02:44:15;;;;;;;78.82;19.23;;;8.10;99.90;;;;;;5074283;28;20162;-86
2022/11/11 02:46:41;;;;;;;76.53;18.70;;;8.10;99.90;;;;;;5074443;28;20163;-86
2022/11/11 02:49:06;;;;;;;78.17;21.87;;;8.20;99.90;;;;;;5074642;28;20210;-86
2022/11/11 02:51:32;;;;;;;75.80;19.83;;;8.20;99.90;;;;;;5074354;28;20171;-86
2022/11/11 02:54:01;;;;;;;79.07;19.87;;;8.20;99.90;;;;;;5073279;28;20199;-86
2022/11/11 02:59:12;;;;;;;75.60;18.48;;;8.10;99.90;;;;;;5074545;28;20295;-86
2022/11/11 03:01:38;;;;;;;74.37;16.17;;;8.10;99.90;;;;;;5073979;28;20192;-86
2022/11/11 03:04:04;;;;;;;78.10;19.90;;;8.00;99.90;;;;;;5074001;28;20159;-86
2022/11/11 03:06:30;;;;;;;74.88;17.13;;;8.00;99.90;;;;;;5073997;28;20198;-86
2022/11/11 03:08:56;;;;;;;77.47;18.83;;;8.00;99.90;;;;;;5072225;28;20540;-86
2022/11/11 03:11:27;;;;;;;78.73;19.00;;;8.00;99.90;;;;;;5073354;28;20398;-86
2022/11/11 03:13:55;;;;;;;78.85;17.83;;;8.00;99.90;;;;;;5073445;28;20171;-86
2022/11/11 03:19:05;;;;;;;73.55;16.60;;;7.90;99.90;;;;;;5077811;28;20233;-86
2022/11/11 03:21:30;;;;;;;81.27;18.20;;;7.90;99.90;;;;;;5077419;28;20159;-86
2022/11/11 03:23:56;;;;;;;74.60;16.70;;;7.90;99.90;;;;;;5077271;28;20637;-86
2022/11/11 03:26:22;;;;;;;78.03;21.40;;;7.80;99.90;;;;;;5077247;28;20539;-86
2022/11/11 03:28:48;;;;;;;77.47;19.30;;;7.80;99.90;;;;;;5076086;28;20167;-87
2022/11/11 03:31:14;;;;;;;75.15;19.48;;;7.80;99.90;;;;;;5077121;28;20243;-86
2022/11/11 03:33:40;;;;;;;75.77;19.60;;;7.80;99.90;;;;;;5077089;28;20710;-86
2022/11/11 03:36:06;;;;;;;75.47;15.93;;;7.80;99.90;;;;;;5076839;28;20410;-86
2022/11/11 03:38:31;;;;;;;80.00;19.80;;;7.80;99.90;;;;;;5075912;28;20250;-86
2022/11/11 03:40:57;;;;;;;80.40;19.90;;;7.80;99.90;;;;;;5076925;28;20885;-86
2022/11/11 03:43:29;;;;;;;76.23;16.90;;;7.80;99.90;;;;;;5075555;28;20585;-86
2022/11/11 03:45:58;;;;;;;79.10;21.30;;;7.70;99.90;;;;;;5077003;28;20385;-86
2022/11/11 03:48:27;;;;;;;75.68;19.90;;;7.70;99.90;;;;;;5076713;28;20245;-86
2022/11/11 03:50:52;;;;;;;75.05;16.95;;;7.80;99.90;;;;;;5075424;28;20329;-86
2022/11/11 03:53:19;;;;;;;85.30;19.57;;;7.70;99.90;;;;;;5077019;28;20713;-86
2022/11/11 03:55:45;;;;;;;76.18;22.00;;;7.70;99.90;;;;;;5076655;28;20164;-86
2022/11/11 03:58:11;;;;;;;80.37;20.17;;;7.60;99.90;;;;;;5076570;28;20243;-86
2022/11/11 04:00:38;;;;;;;78.57;21.35;;;7.60;99.90;;;;;;5076828;28;20824;-86
2022/11/11 04:11:35;;;;;;;77.13;20.30;;;7.60;99.90;;;;;;5076800;28;20190;-86
2022/11/11 04:16:52;;;;;;;79.60;21.85;;;7.60;99.90;;;;;;5076603;28;20178;-86
2022/11/11 04:22:05;;;;;;;78.05;22.00;;;7.60;99.90;;;;;;5076243;28;20209;-86
2022/11/11 04:27:17;;;;;;;77.50;21.55;;;7.50;99.90;;;;;;5075590;28;20186;-86
2022/11/11 04:29:45;;;;;;;76.85;17.92;;;7.50;99.90;;;;;;5075061;28;20629;-86
2022/11/11 04:35:04;;;;;;;78.35;21.15;;;7.50;99.90;;;;;;5075676;28;20523;-86
2022/11/11 04:37:32;;;;;;;76.70;18.48;;;7.50;99.90;;;;;;5075611;28;20195;-86
2022/11/11 04:42:41;;;;;;;74.38;22.45;;;7.50;99.90;;;;;;5075975;28;20229;-86
2022/11/11 04:45:30;;;;;;;77.40;21.00;;;7.50;99.90;;;;;;5075842;28;20160;-86
2022/11/11 04:48:07;;;;;;;79.72;20.50;;;7.50;99.90;;;;;;5075657;28;20160;-86
2022/11/11 04:50:41;;;;;;;77.80;21.98;;;7.50;99.90;;;;;;5075446;28;20199;-86
2022/11/11 04:53:10;;;;;;;81.97;21.60;;;7.50;99.90;;;;;;5075797;28;20179;-86
2022/11/11 04:58:23;;;;;;;77.50;21.83;;;7.50;99.90;;;;;;5075571;28;20155;-86
2022/11/11 05:00:48;;;;;;;80.30;21.15;;;7.50;99.90;;;;;;5075338;28;20673;-86
2022/11/11 05:03:15;;;;;;;75.20;20.60;;;7.50;99.90;;;;;;5075469;28;20160;-86
2022/11/11 05:08:55;;;;;;;77.88;21.15;;;7.50;99.90;;;;;;5075973;28;20155;-86
2022/11/11 05:11:32;;;;;;;78.05;19.15;;;7.50;99.90;;;;;;5075363;28;20158;-86
2022/11/11 05:22:33;;;;;;;78.78;17.70;;;7.40;99.90;;;;;;5074758;28;20244;-87
2022/11/11 05:27:43;;;;;;;77.45;18.50;;;7.40;99.90;;;;;;5074651;28;20241;-87
2022/11/11 05:30:11;;;;;;;78.00;19.30;;;7.30;99.90;;;;;;5074825;28;20214;-86
2022/11/11 05:32:37;;;;;;;75.00;18.63;;;7.30;99.90;;;;;;5074497;28;20521;-86
2022/11/11 05:35:08;;;;;;;76.15;19.50;;;7.30;99.90;;;;;;5074701;28;20172;-86
2022/11/11 05:37:34;;;;;;;80.82;18.58;;;7.30;99.90;;;;;;5092498;23;20216;-87
2022/11/11 05:40:00;;;;;;;79.77;20.57;;;7.30;99.90;;;;;;5098472;28;20340;-86
2022/11/11 05:42:27;;;;;;;76.60;19.17;;;7.20;99.90;;;;;;5081239;28;20230;-87
2022/11/11 05:44:52;;;;;;;77.07;20.00;;;7.30;99.90;;;;;;5083619;28;20172;-86
2022/11/11 05:47:18;;;;;;;81.20;21.30;;;7.30;99.90;;;;;;5083553;28;20176;-87
2022/11/11 05:49:44;;;;;;;78.20;21.20;;;7.30;99.90;;;;;;5081178;28;20437;-87
2022/11/11 05:52:12;;;;;;;80.85;20.30;;;7.30;99.90;;;;;;5081741;28;20479;-87
2022/11/11 05:54:38;;;;;;;78.45;21.13;;;7.30;99.90;;;;;;5082094;28;20160;-87
2022/11/11 05:57:04;;;;;;;78.10;22.30;;;7.30;99.90;;;;;;5083024;28;20515;-87
2022/11/11 05:59:30;;;;;;;76.18;19.33;;;7.30;99.90;;;;;;5082271;28;20179;-86
2022/11/11 06:01:56;;;;;;;77.10;21.30;;;7.30;99.90;;;;;;5082335;28;20164;-86
2022/11/11 06:04:21;;;;;;;78.17;18.20;;;7.30;99.90;;;;;;5082491;28;20325;-87
2022/11/11 06:06:47;;;;;;;76.37;23.10;;;7.40;99.90;;;;;;5081267;28;20172;-86
2022/11/11 06:09:13;;;;;;;81.88;20.88;;;7.40;99.90;;;;;;5082922;28;20190;-86
2022/11/11 06:11:39;;;;;;;74.90;19.60;;;7.40;99.90;;;;;;5081897;28;20242;-86
2022/11/11 06:14:06;;;;;;;80.65;19.67;;;7.50;99.90;;;;;;5082181;28;20659;-86
2022/11/11 06:16:31;;;;;;;75.68;21.40;;;7.40;99.90;;;;;;5080557;28;20172;-86
2022/11/11 06:18:58;;;;;;;78.50;23.57;;;7.40;99.90;;;;;;5083320;28;20252;-86
2022/11/11 06:21:25;;;;;;;77.15;21.35;;;7.40;99.90;;;;;;5083524;28;20226;-86
2022/11/11 06:23:51;;;;;;;80.20;21.25;;;7.50;99.90;;;;;;5083117;28;20539;-86
2022/11/11 06:26:17;;;;;;;76.87;19.60;;;7.50;99.90;;;;;;5085007;28;20171;-86
2022/11/11 06:28:45;;;;;;;76.77;21.57;;;7.50;99.90;;;;;;5085524;28;20172;-86
2022/11/11 06:31:17;;;;;;;74.85;19.10;;;7.50;99.90;;;;;;5084080;28;20422;-86
2022/11/11 06:33:43;;;;;;;80.25;23.48;;;7.50;99.90;;;;;;5085021;28;20184;-86
2022/11/11 06:36:12;;;;;;;86.00;21.52;;;7.50;99.90;;;;;;5083978;28;20195;-86
2022/11/11 06:38:38;;;;;;;74.95;18.13;;;7.50;99.90;;;;;;5085286;28;20190;-86
2022/11/11 06:41:04;;;;;;;80.18;19.58;;;7.60;99.90;;;;;;5084400;28;20166;-86
2022/11/11 06:43:30;;;;;;;79.13;21.85;;;7.50;99.90;;;;;;5083591;28;20160;-86
2022/11/11 06:45:56;;;;;;;76.13;21.97;;;7.40;99.90;;;;;;5083118;28;20199;-86
2022/11/11 06:48:26;;;;;;;77.22;21.75;;;7.40;99.90;;;;;;5083748;28;20434;-86
2022/11/11 06:50:53;;;;;;;77.45;20.50;;;7.40;99.90;;;;;;5083790;28;20188;-86
2022/11/11 06:53:20;;;;;;;78.97;21.13;;;7.40;99.90;;;;;;5083880;28;20199;-87
2022/11/11 06:55:46;;;;;;;82.30;20.45;;;7.40;99.90;;;;;;5083958;28;20156;-87
2022/11/11 06:58:17;;;;;;;78.50;21.02;;;7.40;99.90;;;;;;5084588;28;20211;-87
2022/11/11 07:00:45;;;;;;;81.10;22.60;;;7.50;99.90;;;;;;5084214;28;20194;-87
2022/11/11 07:03:12;;;;;;;81.05;21.00;;;7.40;99.90;;;;;;5084310;28;20164;-87
2022/11/11 07:05:38;;;;;;;81.28;25.10;;;7.40;99.90;;;;;;5083231;28;20171;-87
2022/11/11 07:08:06;;;;;;;83.60;25.27;;;7.40;99.90;;;;;;5084915;28;20182;-87
2022/11/11 07:10:34;;;;;;;81.15;21.58;;;7.40;99.90;;;;;;5085967;28;20184;-87
2022/11/11 07:13:00;;;;;;;80.25;21.73;;;7.40;99.90;;;;;;5084933;28;20252;-87
2022/11/11 07:15:27;;;;;;;79.65;22.33;;;7.30;99.90;;;;;;5099730;28;20546;-87
2022/11/11 07:17:52;;;;;;;81.45;21.45;;;7.30;99.90;;;;;;5085163;28;20157;-87
2022/11/11 07:20:18;;;;;;;79.63;22.93;;;7.40;99.90;;;;;;5087192;28;20658;-87
2022/11/11 07:22:44;;;;;;;80.32;22.27;;;7.40;99.90;;;;;;5086425;28;20228;-87
2022/11/11 07:25:10;;;;;;;86.10;19.30;;;7.40;99.90;;;;;;5086633;28;20554;-87
2022/11/11 07:27:40;;;;;;;83.67;21.83;;;7.40;99.90;;;;;;5086892;28;20172;-87
2022/11/11 07:30:07;;;;;;;83.07;23.25;;;7.40;99.90;;;;;;5086827;28;20184;-87
2022/11/11 07:32:33;;;;;;;86.68;22.77;;;7.50;99.90;;;;;;5085828;28;20195;-87
2022/11/11 07:34:58;;;;;;;81.27;22.47;;;7.50;99.90;;;;;;5084135;28;20221;-86
2022/11/11 07:37:24;;;;;;;82.20;23.07;;;7.50;99.90;;;;;;5081936;28;20517;-86
2022/11/11 07:39:50;;;;;;;80.95;23.20;;;7.50;99.90;;;;;;5083465;28;20184;-86
2022/11/11 07:42:16;;;;;;;83.80;22.60;;;7.60;99.90;;;;;;5084038;28;20195;-87
2022/11/11 07:44:42;;;;;;;76.30;21.60;;;7.50;99.90;;;;;;5084394;28;20156;-87
2022/11/11 07:47:08;;;;;;;80.00;20.60;;;7.60;99.90;;;;;;5082776;28;20174;-87
2022/11/11 07:49:34;;;;;;;79.57;24.20;;;7.70;99.90;;;;;;5082677;28;20214;-86
2022/11/11 07:52:00;;;;;;;92.90;21.13;;;7.80;99.90;;;;;;5080479;28;20219;-86
2022/11/11 07:54:25;;;;;;;82.13;23.97;;;7.80;99.90;;;;;;5080734;28;20191;-87
2022/11/11 07:56:51;;;;;;;80.57;23.27;;;7.80;99.90;;;;;;5082269;28;20160;-86
2022/11/11 07:59:17;;;;;;;97.33;23.43;;;7.80;99.90;;;;;;5081418;28;20196;-85
2022/11/11 08:01:43;;;;;;;84.07;25.90;;;7.90;99.90;;;;;;5082605;28;20402;-86
2022/11/11 08:04:08;;;;;;;81.17;23.23;;;8.00;99.90;;;;;;5083927;28;20750;-86
2022/11/11 08:06:34;;;;;;;83.33;25.93;;;8.00;99.90;;;;;;5082363;28;20168;-86
2022/11/11 08:09:00;;;;;;;93.00;27.33;;;8.10;99.90;;;;;;5084103;28;20190;-86
2022/11/11 08:14:09;;;;;;;81.07;21.20;;;8.20;99.90;;;;;;5080615;28;20182;-85
2022/11/11 08:16:35;;;;;;;85.07;21.53;;;8.20;99.90;;;;;;5077432;28;20167;-84
2022/11/11 08:19:04;;;;;;;86.20;25.08;;;8.30;99.90;;;;;;5078935;28;20176;-86
2022/11/11 08:21:30;;;;;;;85.18;22.00;;;8.30;99.90;;;;;;5082328;28;20168;-89
2022/11/11 08:23:58;;;;;;;80.20;21.93;;;8.30;99.90;;;;;;5081202;28;20171;-88
2022/11/11 08:26:27;;;;;;;80.22;22.42;;;8.30;99.90;;;;;;5084051;28;20647;-88
2022/11/11 08:28:53;;;;;;;79.95;21.38;;;8.40;99.90;;;;;;5081978;28;20167;-88
2022/11/11 08:31:19;;;;;;;87.00;22.43;;;8.40;99.90;;;;;;5081796;28;20175;-88
2022/11/11 08:33:45;;;;;;;81.60;20.17;;;8.50;99.90;;;;;;5084716;28;20184;-88
2022/11/11 08:36:11;;;;;;;82.70;22.17;;;8.50;99.90;;;;;;5085383;28;20480;-86
2022/11/11 08:38:38;;;;;;;85.95;21.60;;;8.50;99.90;;;;;;5078015;28;20573;-88
2022/11/11 08:41:06;;;;;;;90.40;22.27;;;8.50;99.90;;;;;;5095978;28;20258;-89
2022/11/11 08:43:35;;;;;;;81.32;24.50;;;8.60;99.90;;;;;;5080675;28;20214;-88
2022/11/11 08:46:02;;;;;;;82.05;23.92;;;8.70;99.90;;;;;;5079712;28;20722;-87
2022/11/11 08:48:32;;;;;;;83.82;27.10;;;8.70;99.90;;;;;;5080141;28;20241;-87
2022/11/11 08:50:58;;;;;;;81.03;22.20;;;8.80;99.90;;;;;;5080363;28;20190;-88
2022/11/11 08:53:25;;;;;;;83.35;23.90;;;8.80;99.90;;;;;;5080551;28;20214;-88
2022/11/11 08:55:50;;;;;;;84.10;25.25;;;8.80;99.90;;;;;;5080310;28;20221;-88
2022/11/11 08:58:16;;;;;;;86.20;27.27;;;8.90;99.90;;;;;;5080345;28;20164;-88
2022/11/11 09:00:42;;;;;;;81.47;27.80;;;8.90;99.90;;;;;;5078146;28;20206;-87
2022/11/11 09:03:10;;;;;;;88.47;32.47;;;9.00;99.90;;;;;;5078990;28;20168;-88
2022/11/11 09:05:39;;;;;;;86.40;29.60;;;9.00;99.90;;;;;;5079794;28;20201;-86
2022/11/11 09:08:07;;;;;;;84.95;24.20;;;9.10;99.90;;;;;;5079250;28;20164;-88
2022/11/11 09:10:33;;;;;;;79.18;25.42;;;9.00;99.90;;;;;;5079656;28;20180;-88
2022/11/11 09:13:00;;;;;;;80.55;30.63;;;9.10;99.90;;;;;;5076460;28;20392;-87
2022/11/11 09:15:27;;;;;;;81.90;29.77;;;9.10;99.90;;;;;;5081451;28;20711;-87
2022/11/11 09:17:53;;;;;;;84.65;31.80;;;9.10;99.90;;;;;;5079528;28;20178;-87
2022/11/11 09:20:19;;;;;;;81.30;30.30;;;9.20;99.90;;;;;;5078415;28;20275;-88
2022/11/11 09:22:46;;;;;;;81.53;29.38;;;9.30;99.90;;;;;;5080278;28;20406;-87
2022/11/11 09:25:12;;;;;;;80.60;29.17;;;9.30;99.90;;;;;;5080225;28;20662;-87
2022/11/11 09:27:38;;;;;;;80.45;28.83;;;9.30;99.90;;;;;;5079545;28;20172;-87
2022/11/11 09:30:05;;;;;;;85.37;27.70;;;9.40;99.90;;;;;;5079293;28;20587;-88
2022/11/11 09:32:31;;;;;;;81.88;30.23;;;9.40;99.90;;;;;;5079354;28;20446;-87
2022/11/11 09:34:57;;;;;;;84.78;34.40;;;9.50;99.90;;;;;;5079299;28;20233;-87
2022/11/11 09:37:23;;;;;;;78.97;29.07;;;9.60;99.90;;;;;;5079962;28;20643;-88
2022/11/11 09:39:49;;;;;;;81.30;33.28;;;9.60;99.90;;;;;;5078855;28;20506;-88
2022/11/11 09:42:41;;;;;;;80.50;28.60;;;9.70;99.90;;;;;;5079109;28;20639;-87
2022/11/11 09:45:10;;;;;;;81.40;31.77;;;9.80;99.90;;;;;;5079802;28;20544;-87
2022/11/11 09:48:01;;;;;;;79.90;28.30;;;9.80;99.90;;;;;;5078628;28;20171;-87
2022/11/11 09:50:30;;;;;;;77.95;29.95;;;10.00;99.90;;;;;;5077865;28;20282;-87
2022/11/11 09:52:55;;;;;;;83.72;30.50;;;10.00;99.90;;;;;;5078643;28;20222;-88
2022/11/11 09:55:41;;;;;;;82.10;26.83;;;10.10;99.90;;;;;;5077691;28;20543;-88
2022/11/11 09:58:17;;;;;;;80.10;25.83;;;10.10;99.90;;;;;;5077087;28;20170;-86
2022/11/11 10:00:47;;;;;;;81.35;26.92;;;10.20;99.90;;;;;;5078573;28;20267;-87
2022/11/11 10:03:20;;;;;;;86.22;23.75;;;10.20;99.90;;;;;;5077876;28;20556;-88
2022/11/11 10:06:01;;;;;;;76.55;20.40;;;10.30;99.90;;;;;;5077043;28;20175;-87
2022/11/11 10:08:41;;;;;;;80.43;22.52;;;10.40;99.90;;;;;;5076263;28;20251;-88
2022/11/11 10:11:19;;;;;;;77.95;21.48;;;10.40;99.90;;;;;;5077162;28;20187;-88
2022/11/11 10:13:45;;;;;;;76.90;20.65;;;10.50;99.90;;;;;;5076970;28;20191;-88
2022/11/11 10:16:13;;;;;;;78.27;24.27;;;10.60;99.90;;;;;;5076965;28;20206;-88
2022/11/11 10:18:52;;;;;;;76.35;20.88;;;10.60;99.90;;;;;;5079160;28;20160;-88
2022/11/11 10:21:43;;;;;;;80.30;18.50;;;10.70;99.90;;;;;;5076720;28;20178;-87
2022/11/11 10:24:15;;;;;;;78.85;20.63;;;10.70;99.90;;;;;;5078087;28;20154;-88
2022/11/11 10:26:44;;;;;;;76.55;19.23;;;10.70;99.90;;;;;;5076238;28;20580;-87
2022/11/11 10:29:21;;;;;;;72.30;16.38;;;10.80;99.90;;;;;;5076301;28;20198;-87
2022/11/11 10:31:57;;;;;;;73.18;13.55;;;10.90;99.90;;;;;;5076563;28;20175;-88
2022/11/11 10:34:30;;;;;;;77.05;14.55;;;11.00;99.90;;;;;;5078490;28;20170;-88
2022/11/11 10:36:58;;;;;;;74.57;14.95;;;11.10;99.90;;;;;;5078020;28;20182;-88
2022/11/11 10:39:33;;;;;;;71.82;11.50;;;11.10;99.90;;;;;;5078038;28;20195;-88
2022/11/11 10:41:58;;;;;;;77.00;11.27;;;11.30;99.90;;;;;;5076579;28;20156;-88
2022/11/11 10:44:27;;;;;;;73.60;12.33;;;11.50;99.90;;;;;;5077144;28;20293;-88
2022/11/11 10:47:14;;;;;;;75.05;13.65;;;11.50;99.90;;;;;;5077901;28;20175;-88
2022/11/11 10:49:54;;;;;;;76.75;12.02;;;11.50;99.90;;;;;;5077094;28;20577;-88
2022/11/11 10:52:32;;;;;;;73.53;10.10;;;11.50;99.90;;;;;;5077578;28;20554;-88
2022/11/11 10:55:05;;;;;;;71.20;9.75;;;11.60;99.90;;;;;;5078955;28;20177;-88
2022/11/11 10:57:45;;;;;;;71.50;10.48;;;11.80;99.90;;;;;;5077135;28;20171;-88
2022/11/11 11:00:13;;;;;;;74.18;10.02;;;11.90;99.90;;;;;;5077571;28;20695;-88
2022/11/11 11:02:45;;;;;;;73.32;11.30;;;12.10;99.90;;;;;;5076597;28;20167;-88
2022/11/11 11:05:25;;;;;;;74.47;10.00;;;12.20;99.90;;;;;;5076147;28;20168;-87
2022/11/11 11:07:56;;;;;;;70.22;8.38;;;12.30;99.90;;;;;;5077885;28;20151;-88
2022/11/11 11:10:42;;;;;;;70.47;6.82;;;12.40;99.90;;;;;;5077407;28;20532;-88
2022/11/11 11:13:38;;;;;;;75.00;6.60;;;12.50;99.90;;;;;;5081173;28;20160;-87
2022/11/11 11:16:12;;;;;;;69.38;6.70;;;12.70;99.90;;;;;;5089765;28;20152;-88
2022/11/11 11:18:38;;;;;;;69.75;7.70;;;12.90;99.90;;;;;;5086554;28;20151;-89
2022/11/11 11:21:05;;;;;;;75.57;8.17;;;13.00;99.90;;;;;;5088769;28;20168;-88
2022/11/11 11:23:34;;;;;;;76.70;6.85;;;13.00;99.90;;;;;;5089420;28;20188;-89
2022/11/11 11:26:01;;;;;;;74.65;7.55;;;13.00;99.90;;;;;;5089259;28;20170;-89
2022/11/11 11:28:27;;;;;;;76.90;8.57;;;13.20;99.90;;;;;;5088910;28;20164;-88
2022/11/11 11:31:33;;;;;;;70.23;7.30;;;13.30;99.90;;;;;;5087727;28;20191;-88
2022/11/11 11:34:01;;;;;;;76.60;7.57;;;13.30;99.90;;;;;;5086309;28;20183;-89
2022/11/11 11:36:27;;;;;;;73.75;8.15;;;13.40;99.90;;;;;;5153185;23;20802;-85
2022/11/11 11:38:52;;;;;;;74.40;7.33;;;13.40;99.90;;;;;;5079167;28;20176;-84
2022/11/11 11:41:42;;;;;;;69.43;6.70;;;13.40;99.90;;;;;;5081585;28;20156;-84
2022/11/11 11:44:28;;;;;;;70.87;8.70;;;13.50;99.90;;;;;;5080409;28;20171;-84
2022/11/11 11:47:04;;;;;;;70.23;7.33;;;13.30;99.90;;;;;;5081465;28;20443;-84
2022/11/11 11:49:33;;;;;;;71.03;6.20;;;13.40;99.90;;;;;;5081361;28;20418;-84
2022/11/11 11:52:31;;;;;;;70.13;6.63;;;13.40;99.90;;;;;;5080308;28;20176;-84
2022/11/11 11:55:26;;;;;;;67.57;6.43;;;13.50;99.90;;;;;;5079456;28;20160;-84
2022/11/11 11:58:18;;;;;;;68.78;5.80;;;13.50;99.90;;;;;;5080817;28;20410;-84
2022/11/11 12:01:45;;;;;;;68.00;6.10;;;13.50;99.90;;;;;;5080253;28;20192;-84
2022/11/11 12:04:29;;;;;;;67.50;5.87;;;13.50;99.90;;;;;;5020242;28;20411;-84
2022/11/11 12:07:24;;;;;;;77.80;7.53;;;13.50;99.90;;;;;;5039032;28;20411;-84
2022/11/11 12:10:13;;;;;;;67.77;6.00;;;13.50;99.90;;;;;;5092796;28;20782;-84
2022/11/11 12:13:13;;;;;;;69.53;5.70;;;13.60;99.90;;;;;;5079090;28;20537;-84
2022/11/11 12:16:09;;;;;;;69.17;6.07;;;13.60;99.90;;;;;;5078881;28;20402;-84
2022/11/11 12:18:51;;;;;;;68.53;6.17;;;13.60;99.90;;;;;;5079982;28;20405;-85
2022/11/11 12:21:22;;;;;;;67.40;5.00;;;13.60;99.90;;;;;;5079277;28;20382;-84
2022/11/11 12:23:56;;;;;;;70.90;5.15;;;13.60;99.90;;;;;;5080271;28;20473;-84
2022/11/11 12:26:35;;;;;;;67.77;4.47;;;13.60;99.90;;;;;;5080362;28;20153;-84
2022/11/11 12:29:04;;;;;;;70.47;5.25;;;13.50;99.90;;;;;;5080810;28;20453;-84
2022/11/11 12:31:35;;;;;;;69.97;4.93;;;13.50;99.90;;;;;;5080432;28;20624;-84
2022/11/11 12:34:20;;;;;;;67.45;5.20;;;13.60;99.90;;;;;;5080103;28;20243;-84
2022/11/11 12:37:10;;;;;;;69.50;4.97;;;13.60;98.60;;;;;;5080129;28;20210;-84
2022/11/11 12:39:59;;;;;;;67.13;5.20;;;13.60;96.90;;;;;;5081190;28;20435;-84
2022/11/11 12:42:47;;;;;;;75.57;5.87;;;13.60;96.40;;;;;;5080919;28;20163;-84
2022/11/11 12:45:22;;;;;;;67.63;4.60;;;13.60;95.40;;;;;;5079062;28;20398;-84
2022/11/11 12:48:17;;;;;;;66.30;5.20;;;13.70;97.10;;;;;;5079755;28;20465;-84
2022/11/11 12:51:21;;;;;;;66.57;4.80;;;13.60;92.90;;;;;;5079802;28;20188;-84
2022/11/11 12:54:15;;;;;;;68.37;4.93;;;13.70;95.20;;;;;;5064414;28;20575;-84
2022/11/11 12:56:55;;;;;;;69.40;6.07;;;13.70;93.10;;;;;;5078270;28;20413;-84
2022/11/11 12:59:58;;;;;;;67.93;4.50;;;13.70;92.60;;;;;;5080463;28;20183;-84
2022/11/11 13:02:42;;;;;;;70.37;4.50;;;13.80;95.20;;;;;;5081341;28;20880;-84
2022/11/11 13:05:55;;;;;;;67.70;4.87;;;14.00;95.50;;;;;;5079595;28;20390;-83
2022/11/11 13:08:39;;;;;;;68.10;4.87;;;14.10;91.30;;;;;;5078224;28;20438;-84
2022/11/11 13:11:04;;;;;;;69.67;3.93;;;14.10;90.40;;;;;;5079250;28;20382;-83
2022/11/11 13:13:48;;;;;;;66.97;4.90;;;14.00;85.80;;;;;;5078624;28;20441;-83
2022/11/11 13:16:16;;;;;;;73.73;4.93;;;14.00;85.40;;;;;;5078689;28;20285;-83
2022/11/11 13:18:42;;;;;;;68.30;4.87;;;13.90;80.50;;;;;;5077272;28;20770;-83
2022/11/11 13:21:16;;;;;;;71.87;4.93;;;14.00;80.50;;;;;;5079184;28;20394;-83
2022/11/11 13:23:42;;;;;;;67.70;4.83;;;14.00;79.80;;;;;;5078244;28;20213;-83
2022/11/11 13:26:39;;;;;;;68.43;5.30;;;14.00;77.40;;;;;;5078013;28;20917;-83
2022/11/11 13:29:27;;;;;;;66.97;5.67;;;14.00;76.30;;;;;;5072496;28;20219;-83
2022/11/11 13:31:53;;;;;;;67.30;5.50;;;14.00;71.60;;;;;;5077913;28;20931;-83
2022/11/11 13:34:21;;;;;;;67.40;5.17;;;14.00;67.20;;;;;;5077978;28;20457;-83
2022/11/11 13:36:53;;;;;;;66.35;4.40;;;14.10;66.10;;;;;;5078274;28;20421;-83
2022/11/11 13:39:46;;;;;;;67.77;4.80;;;14.10;67.40;;;;;;5078047;28;20179;-82
2022/11/11 13:42:21;;;;;;;68.27;5.37;;;14.10;64.20;;;;;;5077161;28;20414;-83
2022/11/11 13:44:54;;;;;;;69.70;4.90;;;14.10;61.00;;;;;;5077509;28;20374;-83
2022/11/11 13:47:28;;;;;;;65.80;4.93;;;14.10;59.30;;;;;;5076394;28;20394;-83
2022/11/11 13:50:28;;;;;;;69.80;5.77;;;14.20;64.10;;;;;;5077659;28;20428;-83
2022/11/11 13:53:14;;;;;;;67.67;5.63;;;14.20;59.30;;;;;;5077143;28;20440;-82
2022/11/11 13:55:43;;;;;;;70.30;5.10;;;14.30;57.10;;;;;;5077244;28;20371;-83
2022/11/11 13:58:28;;;;;;;68.20;5.77;;;14.30;57.40;;;;;;5077572;28;20394;-83
2022/11/11 14:01:05;;;;;;;65.70;5.10;;;14.40;51.40;;;;;;5076225;28;20425;-83
2022/11/11 14:03:34;;;;;;;67.47;5.33;;;14.40;50.90;;;;;;5077213;28;20452;-83
2022/11/11 14:06:15;;;;;;;68.20;5.87;;;14.40;51.30;;;;;;5077328;28;20398;-83
2022/11/11 14:08:47;;;;;;;69.90;5.73;;;14.50;48.80;;;;;;5076343;28;20410;-83
2022/11/11 14:11:25;;;;;;;67.10;5.17;;;14.50;51.60;;;;;;5077538;28;20460;-83